Villa Grove, CO

12:37 AM MDT on September 01, 2016 (GMT -0600)
Monarch Pass

Weather History for KMYP - April, 2014

Change the Weather History Date:

Thursday, April 24, 2014

  Actual Average (KGUC) Record (KGUC)
Temperature  
Mean Temperature 24 °F -  
Max Temperature 37 °F 54 °F 73 °F (2012)
Min Temperature 12 °F 25 °F 21 °F (2004)
Degree Days  
Heating Degree Days 40    
Moisture  
Dew Point 6 °F    
Average Humidity 49    
Maximum Humidity 79    
Minimum Humidity 28    
Precipitation  
Precipitation 0.00 in - - ()
Sea Level Pressure  
Sea Level Pressure 30.22 in    
Wind  
Wind Speed 36 mph (West)    
Max Wind Speed 48 mph    
Max Gust Speed 55 mph    
Visibility 10 miles    
Events      
Averages and records for this station are not official NWS values.
T = Trace of Precipitation, MM = Missing Value Source: NWS Daily Summary

Daily Weather History Graph

Daily Weather History Graph

Search for Another Location

Airport or City:

Trip Planner

Search our weather history database for the weather conditions in past years. The results will help you decide how hot, cold, wet, or windy it might be!

Date:

Astronomy

Apr. 24, 2014 Rise Set
Actual Time 6:16 AM MDT 7:50 PM MDT
Civil Twilight 5:48 AM MDT 8:18 PM MDT
Nautical Twilight 5:15 AM MDT 8:52 PM MDT
Astronomical Twilight 4:39 AM MDT 9:28 PM MDT
Moon 3:25 AM MDT (4/24) 3:12 PM MDT (4/24)
Length of Visible Light 14h 29m
Length of Day
13h 33m
Waning Crescent, 24% of the Moon is Illuminated
Apr 24
Waning Crescent
Apr 29
New
May 6
First Quarter
May 14
Full
May 21
Last Quarter

Hourly Weather History & Observations

Time (MDT) Temp. Windchill Dew Point Humidity Pressure Visibility Wind Dir Wind Speed Gust Speed Precip Events Conditions
12:12 AM 19.4 °F 1.1 °F 8.6 °F 63% 30.11 in 10.0 mi West 27.6 mph - N/A   Clear
12:36 AM 19.4 °F 1.4 °F 8.6 °F 63% 30.11 in 10.0 mi West 26.5 mph 39.1 mph N/A   Clear
12:55 AM 17.6 °F 0.1 °F 8.6 °F 68% 30.11 in 10.0 mi WNW 23.0 mph 29.9 mph N/A   Clear
1:11 AM 17.6 °F -4.1 °F 8.6 °F 68% 30.10 in 10.0 mi West 39.1 mph - N/A   Clear
1:36 AM 17.6 °F -3.6 °F 8.6 °F 68% 30.11 in 10.0 mi West 36.8 mph - N/A   Clear
1:56 AM 17.6 °F -3.1 °F 8.6 °F 68% 30.12 in 10.0 mi West 34.5 mph - N/A   Clear
2:11 AM 15.8 °F -5.8 °F 8.6 °F 73% 30.11 in 10.0 mi West 35.7 mph - N/A   Clear
2:36 AM 15.8 °F -6.8 °F 8.6 °F 73% 30.11 in 10.0 mi West 40.3 mph 43.7 mph N/A   Clear
2:56 AM 15.8 °F -6.6 °F 8.6 °F 73% 30.12 in 10.0 mi West 39.1 mph 43.7 mph N/A   Clear
3:13 AM 15.8 °F -7.0 °F 8.6 °F 73% 30.12 in 10.0 mi West 41.4 mph 44.9 mph N/A   Clear
3:36 AM 15.8 °F -7.0 °F 8.6 °F 73% 30.11 in 10.0 mi West 41.4 mph 47.2 mph N/A   Clear
3:51 AM 15.8 °F -8.4 °F 8.6 °F 73% 30.11 in 10.0 mi West 48.3 mph - N/A   Clear
4:05 AM 14.0 °F -10.0 °F 8.6 °F 79% 30.13 in 10.0 mi West 43.7 mph 48.3 mph N/A   Clear
4:35 AM 14.0 °F -10.0 °F 6.8 °F 73% 30.13 in 10.0 mi West 43.7 mph 51.8 mph N/A   Clear
4:50 AM 14.0 °F -9.8 °F 6.8 °F 73% 30.13 in 10.0 mi West 42.6 mph 50.6 mph N/A   Clear
5:10 AM 12.2 °F -12.1 °F 6.8 °F 79% 30.13 in 10.0 mi West 41.4 mph - N/A   Clear
5:27 AM 12.2 °F -12.1 °F 6.8 °F 79% 30.14 in 10.0 mi West 41.4 mph - N/A   Clear
5:56 AM 12.2 °F -11.6 °F 6.8 °F 79% 30.15 in 10.0 mi West 39.1 mph - N/A   Clear
6:16 AM 12.2 °F -12.5 °F 5.0 °F 73% 30.14 in 10.0 mi West 43.7 mph - N/A   Clear
6:35 AM 12.2 °F -12.3 °F 5.0 °F 73% 30.15 in 10.0 mi West 42.6 mph - N/A   Clear
6:55 AM 12.2 °F -12.8 °F 5.0 °F 73% 30.16 in 10.0 mi West 44.9 mph 50.6 mph N/A   Clear
7:09 AM 12.2 °F -12.5 °F 5.0 °F 73% 30.17 in 10.0 mi West 43.7 mph 50.6 mph N/A   Clear
7:25 AM 14.0 °F -10.0 °F 5.0 °F 67% 30.18 in 10.0 mi West 43.7 mph - N/A   Clear
7:54 AM 14.0 °F -9.8 °F 5.0 °F 67% 30.19 in 10.0 mi West 42.6 mph - N/A   Clear
8:15 AM 14.0 °F -10.0 °F 5.0 °F 67% 30.20 in 10.0 mi West 43.7 mph - N/A   Clear
8:30 AM 15.8 °F -7.3 °F 5.0 °F 62% 30.20 in 10.0 mi West 42.6 mph - N/A   Clear
8:53 AM 17.6 °F -3.8 °F 6.8 °F 63% 30.22 in 10.0 mi West 38.0 mph 43.7 mph N/A   Clear
9:15 AM 17.6 °F -4.1 °F 5.0 °F 58% 30.23 in 10.0 mi West 39.1 mph 44.9 mph N/A   Clear
9:34 AM 19.4 °F -2.0 °F 5.0 °F 54% 30.23 in 10.0 mi West 41.4 mph - N/A   Clear
9:53 AM 19.4 °F -1.8 °F 5.0 °F 54% 30.24 in 10.0 mi West 40.3 mph - N/A   Clear
10:16 AM 21.2 °F 1.2 °F 5.0 °F 50% 30.25 in 10.0 mi West 38.0 mph 43.7 mph N/A   Clear
10:35 AM 23.0 °F 4.9 °F 5.0 °F 46% 30.26 in 10.0 mi West 32.2 mph 41.4 mph N/A   Clear
10:52 AM 24.8 °F 6.4 °F 5.0 °F 43% 30.26 in 10.0 mi WSW 36.8 mph 41.4 mph N/A   Clear
11:16 AM 26.6 °F 9.1 °F 3.2 °F 37% 30.27 in 10.0 mi WSW 35.7 mph 42.6 mph N/A   Clear
11:36 AM 28.4 °F 12.0 °F 3.2 °F 34% 30.27 in 10.0 mi WSW 33.4 mph 40.3 mph N/A   Clear
11:52 AM 28.4 °F 12.0 °F 3.2 °F 34% 30.28 in 10.0 mi WSW 33.4 mph 40.3 mph N/A   Clear
12:16 PM 30.2 °F 14.9 °F 3.2 °F 32% 30.28 in 10.0 mi SW 31.1 mph 43.7 mph N/A   Clear
12:30 PM 32.0 °F 17.2 °F 5.0 °F 32% 30.27 in 10.0 mi WSW 32.2 mph 40.3 mph N/A   Clear
12:50 PM 32.0 °F 17.2 °F 3.2 °F 30% 30.28 in 10.0 mi West 32.2 mph 44.9 mph N/A   Clear
1:14 PM 32.0 °F 16.7 °F 5.0 °F 32% 30.28 in 10.0 mi West 34.5 mph 46.0 mph N/A   Clear
1:31 PM 32.0 °F 16.3 °F 5.0 °F 32% 30.28 in 10.0 mi West 36.8 mph 41.4 mph N/A   Clear
1:55 PM 33.8 °F 18.6 °F 8.6 °F 35% 30.28 in 10.0 mi West 38.0 mph 44.9 mph N/A   Clear
2:13 PM 33.8 °F 18.3 °F 8.6 °F 35% 30.28 in 10.0 mi West 40.3 mph 50.6 mph N/A   Clear
2:36 PM 33.8 °F 18.1 °F 8.6 °F 35% 30.27 in 10.0 mi West 41.4 mph 51.8 mph N/A   Clear
2:56 PM 35.6 °F 20.6 °F 8.6 °F 33% 30.26 in 10.0 mi West 41.4 mph 49.5 mph N/A   Clear
3:13 PM 35.6 °F 20.3 °F 8.6 °F 33% 30.27 in 10.0 mi West 43.7 mph 49.5 mph N/A   Clear
3:27 PM 35.6 °F 20.3 °F 8.6 °F 33% 30.26 in 10.0 mi West 43.7 mph 51.8 mph N/A   Clear
3:53 PM 35.6 °F 21.0 °F 8.6 °F 33% 30.25 in 10.0 mi West 39.1 mph 55.2 mph N/A   Clear
4:11 PM 35.6 °F 20.0 °F 10.4 °F 35% 30.25 in 10.0 mi West 46.0 mph 50.6 mph N/A   Clear
4:36 PM 37.4 °F 23.5 °F 10.4 °F 33% 30.26 in 10.0 mi West 39.1 mph 50.6 mph N/A   Clear
4:55 PM 37.4 °F 22.4 °F 10.4 °F 33% 30.25 in 10.0 mi West 47.2 mph 55.2 mph N/A   Clear
5:08 PM 37.4 °F 24.2 °F 10.4 °F 33% 30.26 in 10.0 mi West 34.5 mph 54.1 mph N/A   Clear
5:36 PM 37.4 °F 24.8 °F 6.8 °F 28% 30.26 in 10.0 mi West 31.1 mph 47.2 mph N/A   Clear
5:55 PM 35.6 °F 22.1 °F 5.0 °F 28% 30.27 in 10.0 mi WSW 32.2 mph 52.9 mph N/A   Clear
6:10 PM 35.6 °F 21.1 °F 5.0 °F 28% 30.26 in 10.0 mi West 38.0 mph 48.3 mph N/A   Clear
6:20 PM 35.6 °F 20.5 °F 5.0 °F 28% 30.27 in 10.0 mi West 42.6 mph 48.3 mph N/A   Clear
6:56 PM 33.8 °F 19.4 °F 5.0 °F 30% 30.28 in 10.0 mi WSW 33.4 mph 48.3 mph N/A   Clear
7:06 PM 33.8 °F 19.0 °F 5.0 °F 30% 30.28 in 10.0 mi West 35.7 mph 46.0 mph N/A   Clear
7:36 PM 32.0 °F 16.2 °F 5.0 °F 32% 30.28 in 10.0 mi West 38.0 mph 43.7 mph N/A   Clear
7:53 PM 32.0 °F 17.0 °F 5.0 °F 32% 30.28 in 10.0 mi West 33.4 mph 46.0 mph N/A   Clear
8:08 PM 32.0 °F 16.2 °F 6.8 °F 35% 30.28 in 10.0 mi West 38.0 mph 43.7 mph N/A   Clear
8:35 PM 30.2 °F 15.4 °F 6.8 °F 37% 30.29 in 10.0 mi West 28.8 mph 39.1 mph N/A   Clear
8:51 PM 30.2 °F 15.4 °F 5.0 °F 34% 30.30 in 10.0 mi West 28.8 mph 41.4 mph N/A   Clear
9:16 PM 30.2 °F 15.2 °F 5.0 °F 34% 30.30 in 10.0 mi West 29.9 mph 34.5 mph N/A   Clear
9:35 PM 30.2 °F 15.9 °F 5.0 °F 34% 30.30 in 10.0 mi West 26.5 mph 31.1 mph N/A   Clear
9:54 PM 30.2 °F 15.4 °F 5.0 °F 34% 30.30 in 10.0 mi West 28.8 mph - N/A   Clear
10:12 PM 30.2 °F 14.9 °F 5.0 °F 34% 30.30 in 10.0 mi West 31.1 mph 38.0 mph N/A   Clear
10:36 PM 30.2 °F 15.4 °F 5.0 °F 34% 30.31 in 10.0 mi West 28.8 mph - N/A   Clear
10:56 PM 30.2 °F 15.2 °F 5.0 °F 34% 30.30 in 10.0 mi West 29.9 mph 34.5 mph N/A   Scattered Clouds
11:13 PM 28.4 °F 13.0 °F 5.0 °F 37% 30.30 in 10.0 mi West 28.8 mph - N/A   Clear
11:33 PM 28.4 °F 13.5 °F 6.8 °F 40% 30.30 in 10.0 mi West 26.5 mph - N/A   Clear
11:52 PM 28.4 °F 13.0 °F 6.8 °F 40% 30.30 in 10.0 mi West 28.8 mph - N/A   Clear